Terminal Aerodrome Forecast
Issued by NWS Upton, NY

Home | Current Version | Previous Version | Text Only | Print | Product List | Glossary On
Versions: 1 2 3 4 5 6 7 8 9 10 11 12 13 14 15 16 17 18 19 20 21 22 23 24 25 26 27 28 29 30 31
177
FTUS41 KOKX 202132 AAC
TAFJFK
TAF AMD
KJFK 202132Z 2022/2124 33013G19KT P6SM FEW250
     FM210000 01010KT P6SM SKC
     FM210500 03007KT P6SM SKC
     FM211600 12005KT P6SM SCT200
     FM211700 15005KT P6SM SCT200
     FM212300 18006KT P6SM BKN200=

USA.gov is the U.S. government's official web portal to all federal, state and local government web resources and services.